sensor_id;sensor_type;location;lat;lon;timestamp;temperature;humidity
48208;DHT22;33997;53.278;9.708;2024-03-08T00:00:58;0.10;94.40
48208;DHT22;33997;53.278;9.708;2024-03-08T00:03:24;0.10;94.60
48208;DHT22;33997;53.278;9.708;2024-03-08T00:05:49;0.10;94.60
48208;DHT22;33997;53.278;9.708;2024-03-08T00:08:15;0.10;94.70
48208;DHT22;33997;53.278;9.708;2024-03-08T00:10:40;0.00;94.70
48208;DHT22;33997;53.278;9.708;2024-03-08T00:13:06;0.10;95.00
48208;DHT22;33997;53.278;9.708;2024-03-08T00:15:31;0.10;94.90
48208;DHT22;33997;53.278;9.708;2024-03-08T00:17:57;0.10;95.00
48208;DHT22;33997;53.278;9.708;2024-03-08T00:20:23;0.10;95.00
48208;DHT22;33997;53.278;9.708;2024-03-08T00:22:48;0.00;94.90
48208;DHT22;33997;53.278;9.708;2024-03-08T00:25:14;0.00;95.20
48208;DHT22;33997;53.278;9.708;2024-03-08T00:27:40;0.10;95.10
48208;DHT22;33997;53.278;9.708;2024-03-08T00:30:07;0.00;95.00
48208;DHT22;33997;53.278;9.708;2024-03-08T00:32:33;0.00;95.20
48208;DHT22;33997;53.278;9.708;2024-03-08T00:34:59;-3276.70;95.10
48208;DHT22;33997;53.278;9.708;2024-03-08T00:37:24;-3276.70;95.30
48208;DHT22;33997;53.278;9.708;2024-03-08T00:39:53;-3276.70;95.50
48208;DHT22;33997;53.278;9.708;2024-03-08T00:42:20;-3276.70;95.50
48208;DHT22;33997;53.278;9.708;2024-03-08T00:44:46;-3276.70;95.50
48208;DHT22;33997;53.278;9.708;2024-03-08T00:47:12;-3276.60;95.50
48208;DHT22;33997;53.278;9.708;2024-03-08T00:49:37;-3276.60;95.60
48208;DHT22;33997;53.278;9.708;2024-03-08T00:52:04;-3276.60;95.70
48208;DHT22;33997;53.278;9.708;2024-03-08T00:54:32;-3276.60;95.70
48208;DHT22;33997;53.278;9.708;2024-03-08T00:56:58;-3276.50;95.70
48208;DHT22;33997;53.278;9.708;2024-03-08T00:59:23;-3276.50;95.80
48208;DHT22;33997;53.278;9.708;2024-03-08T01:01:48;-3276.40;95.80
48208;DHT22;33997;53.278;9.708;2024-03-08T01:04:14;-3276.30;95.90
48208;DHT22;33997;53.278;9.708;2024-03-08T01:06:39;-3276.30;95.90
48208;DHT22;33997;53.278;9.708;2024-03-08T01:09:05;-3276.20;96.00
48208;DHT22;33997;53.278;9.708;2024-03-08T01:11:33;-3276.20;96.10
48208;DHT22;33997;53.278;9.708;2024-03-08T01:13:59;-3276.10;96.20
48208;DHT22;33997;53.278;9.708;2024-03-08T01:16:24;-3276.10;96.30
48208;DHT22;33997;53.278;9.708;2024-03-08T01:18:50;-3276.20;96.60
48208;DHT22;33997;53.278;9.708;2024-03-08T01:21:15;-3276.20;96.60
48208;DHT22;33997;53.278;9.708;2024-03-08T01:23:41;-3276.30;96.80
48208;DHT22;33997;53.278;9.708;2024-03-08T01:26:06;-3276.20;96.60
48208;DHT22;33997;53.278;9.708;2024-03-08T01:28:32;-3276.20;96.70
48208;DHT22;33997;53.278;9.708;2024-03-08T01:30:59;-3276.20;96.70
48208;DHT22;33997;53.278;9.708;2024-03-08T01:33:26;-3276.20;96.80
48208;DHT22;33997;53.278;9.708;2024-03-08T01:35:52;-3276.20;96.90
48208;DHT22;33997;53.278;9.708;2024-03-08T01:38:18;-3276.20;96.80
48208;DHT22;33997;53.278;9.708;2024-03-08T01:40:44;-3276.20;96.90
48208;DHT22;33997;53.278;9.708;2024-03-08T01:43:26;-3276.20;96.90
48208;DHT22;33997;53.278;9.708;2024-03-08T01:45:58;-3276.20;97.00
48208;DHT22;33997;53.278;9.708;2024-03-08T01:48:25;-3276.20;97.00
48208;DHT22;33997;53.278;9.708;2024-03-08T01:50:52;-3276.10;96.90
48208;DHT22;33997;53.278;9.708;2024-03-08T01:53:20;-3276.20;97.20
48208;DHT22;33997;53.278;9.708;2024-03-08T01:55:47;-3276.10;97.00
48208;DHT22;33997;53.278;9.708;2024-03-08T01:58:13;-3276.20;97.10
48208;DHT22;33997;53.278;9.708;2024-03-08T02:00:46;-3276.20;97.40
48208;DHT22;33997;53.278;9.708;2024-03-08T02:03:17;-3276.20;97.20
48208;DHT22;33997;53.278;9.708;2024-03-08T02:05:43;-3276.10;97.10
48208;DHT22;33997;53.278;9.708;2024-03-08T02:08:11;-3276.10;97.20
48208;DHT22;33997;53.278;9.708;2024-03-08T02:10:40;-3276.00;97.20
48208;DHT22;33997;53.278;9.708;2024-03-08T02:13:07;-3276.00;97.20
48208;DHT22;33997;53.278;9.708;2024-03-08T02:15:52;-3276.00;97.30
48208;DHT22;33997;53.278;9.708;2024-03-08T02:18:18;-3275.90;97.30
48208;DHT22;33997;53.278;9.708;2024-03-08T02:20:44;-3275.90;97.40
48208;DHT22;33997;53.278;9.708;2024-03-08T02:23:10;-3275.90;97.50
48208;DHT22;33997;53.278;9.708;2024-03-08T02:25:35;-3275.90;97.50
48208;DHT22;33997;53.278;9.708;2024-03-08T02:28:01;-3275.90;97.60
48208;DHT22;33997;53.278;9.708;2024-03-08T02:30:27;-3275.80;97.50
48208;DHT22;33997;53.278;9.708;2024-03-08T02:32:55;-3275.90;97.70
48208;DHT22;33997;53.278;9.708;2024-03-08T02:35:21;-3275.80;97.60
48208;DHT22;33997;53.278;9.708;2024-03-08T02:37:46;-3275.90;97.80
48208;DHT22;33997;53.278;9.708;2024-03-08T02:40:13;-3275.80;97.60
48208;DHT22;33997;53.278;9.708;2024-03-08T02:42:39;-3275.80;97.70
48208;DHT22;33997;53.278;9.708;2024-03-08T02:45:05;-3275.70;97.80
48208;DHT22;33997;53.278;9.708;2024-03-08T02:47:31;-3275.70;97.90
48208;DHT22;33997;53.278;9.708;2024-03-08T02:49:56;-3275.70;97.70
48208;DHT22;33997;53.278;9.708;2024-03-08T02:52:22;-3275.70;97.90
48208;DHT22;33997;53.278;9.708;2024-03-08T02:54:48;-3275.60;97.80
48208;DHT22;33997;53.278;9.708;2024-03-08T02:57:13;-3275.60;97.90
48208;DHT22;33997;53.278;9.708;2024-03-08T02:59:40;-3275.50;97.90
48208;DHT22;33997;53.278;9.708;2024-03-08T03:02:05;-3275.50;98.00
48208;DHT22;33997;53.278;9.708;2024-03-08T03:04:32;-3275.60;98.10
48208;DHT22;33997;53.278;9.708;2024-03-08T03:07:00;-3275.50;98.10
48208;DHT22;33997;53.278;9.708;2024-03-08T03:09:26;-3275.60;98.20
48208;DHT22;33997;53.278;9.708;2024-03-08T03:11:53;-3275.50;98.20
48208;DHT22;33997;53.278;9.708;2024-03-08T03:14:21;-3275.50;98.10
48208;DHT22;33997;53.278;9.708;2024-03-08T03:16:46;-3275.50;98.30
48208;DHT22;33997;53.278;9.708;2024-03-08T03:19:12;-3275.50;98.20
48208;DHT22;33997;53.278;9.708;2024-03-08T03:21:37;-3275.40;98.20
48208;DHT22;33997;53.278;9.708;2024-03-08T03:24:03;-3275.40;98.30
48208;DHT22;33997;53.278;9.708;2024-03-08T03:26:30;-3275.50;98.50
48208;DHT22;33997;53.278;9.708;2024-03-08T03:28:56;-3275.50;98.50
48208;DHT22;33997;53.278;9.708;2024-03-08T03:31:22;-3275.50;98.50
48208;DHT22;33997;53.278;9.708;2024-03-08T03:33:49;-3275.50;98.50
48208;DHT22;33997;53.278;9.708;2024-03-08T03:36:17;-3275.50;98.60
48208;DHT22;33997;53.278;9.708;2024-03-08T03:38:43;-3275.60;98.60
48208;DHT22;33997;53.278;9.708;2024-03-08T03:41:09;-3275.50;98.60
48208;DHT22;33997;53.278;9.708;2024-03-08T03:43:39;-3275.60;98.60
48208;DHT22;33997;53.278;9.708;2024-03-08T03:46:06;-3275.60;98.60
48208;DHT22;33997;53.278;9.708;2024-03-08T03:48:32;-3275.50;98.50
48208;DHT22;33997;53.278;9.708;2024-03-08T03:50:58;-3275.60;98.60
48208;DHT22;33997;53.278;9.708;2024-03-08T03:53:23;-3275.50;98.60
48208;DHT22;33997;53.278;9.708;2024-03-08T03:55:51;-3275.50;98.70
48208;DHT22;33997;53.278;9.708;2024-03-08T03:58:16;-3275.50;98.70
48208;DHT22;33997;53.278;9.708;2024-03-08T04:00:47;-3275.40;98.70
48208;DHT22;33997;53.278;9.708;2024-03-08T04:03:13;-3275.40;98.70
48208;DHT22;33997;53.278;9.708;2024-03-08T04:05:39;-3275.50;98.80
48208;DHT22;33997;53.278;9.708;2024-03-08T04:08:05;-3275.50;98.90
48208;DHT22;33997;53.278;9.708;2024-03-08T04:10:31;-3275.40;98.80
48208;DHT22;33997;53.278;9.708;2024-03-08T04:12:57;-3275.40;98.90
48208;DHT22;33997;53.278;9.708;2024-03-08T04:15:22;-3275.40;98.90
48208;DHT22;33997;53.278;9.708;2024-03-08T04:17:48;-3275.40;98.90
48208;DHT22;33997;53.278;9.708;2024-03-08T04:20:13;-3275.40;98.90
48208;DHT22;33997;53.278;9.708;2024-03-08T04:22:39;-3275.40;99.10
48208;DHT22;33997;53.278;9.708;2024-03-08T04:25:06;-3275.50;99.10
48208;DHT22;33997;53.278;9.708;2024-03-08T04:27:32;-3275.50;99.10
48208;DHT22;33997;53.278;9.708;2024-03-08T04:29:58;-3275.40;98.90
48208;DHT22;33997;53.278;9.708;2024-03-08T04:32:24;-3275.30;98.90
48208;DHT22;33997;53.278;9.708;2024-03-08T04:34:50;-3275.30;98.90
48208;DHT22;33997;53.278;9.708;2024-03-08T04:37:15;-3275.30;99.00
48208;DHT22;33997;53.278;9.708;2024-03-08T04:39:43;-3275.30;99.00
48208;DHT22;33997;53.278;9.708;2024-03-08T04:42:09;-3275.40;99.10
48208;DHT22;33997;53.278;9.708;2024-03-08T04:44:35;-3275.30;99.00
48208;DHT22;33997;53.278;9.708;2024-03-08T04:47:02;-3275.30;99.10
48208;DHT22;33997;53.278;9.708;2024-03-08T04:49:27;-3275.20;99.00
48208;DHT22;33997;53.278;9.708;2024-03-08T04:51:53;-3275.30;99.20
48208;DHT22;33997;53.278;9.708;2024-03-08T04:54:18;-3275.20;99.10
48208;DHT22;33997;53.278;9.708;2024-03-08T04:56:44;-3275.30;99.30
48208;DHT22;33997;53.278;9.708;2024-03-08T04:59:10;-3275.30;99.20
48208;DHT22;33997;53.278;9.708;2024-03-08T05:01:35;-3275.30;99.20
48208;DHT22;33997;53.278;9.708;2024-03-08T05:04:03;-3275.20;99.10
48208;DHT22;33997;53.278;9.708;2024-03-08T05:06:29;-3275.20;99.10
48208;DHT22;33997;53.278;9.708;2024-03-08T05:08:55;-3275.20;99.20
48208;DHT22;33997;53.278;9.708;2024-03-08T05:11:21;-3275.20;99.20
48208;DHT22;33997;53.278;9.708;2024-03-08T05:13:46;-3275.10;99.20
48208;DHT22;33997;53.278;9.708;2024-03-08T05:16:12;-3275.20;99.10
48208;DHT22;33997;53.278;9.708;2024-03-08T05:18:40;-3275.20;99.10
48208;DHT22;33997;53.278;9.708;2024-03-08T05:21:07;-3275.20;99.20
48208;DHT22;33997;53.278;9.708;2024-03-08T05:23:34;-3275.20;99.20
48208;DHT22;33997;53.278;9.708;2024-03-08T05:26:00;-3275.10;99.20
48208;DHT22;33997;53.278;9.708;2024-03-08T05:28:26;-3275.00;99.10
48208;DHT22;33997;53.278;9.708;2024-03-08T05:30:51;-3275.00;99.10
48208;DHT22;33997;53.278;9.708;2024-03-08T05:33:17;-3275.00;99.20
48208;DHT22;33997;53.278;9.708;2024-03-08T05:35:42;-3275.00;99.10
48208;DHT22;33997;53.278;9.708;2024-03-08T05:38:08;-3275.00;99.30
48208;DHT22;33997;53.278;9.708;2024-03-08T05:40:34;-3275.00;99.30
48208;DHT22;33997;53.278;9.708;2024-03-08T05:42:59;-3274.90;99.20
48208;DHT22;33997;53.278;9.708;2024-03-08T05:45:25;-3274.90;99.20
48208;DHT22;33997;53.278;9.708;2024-03-08T05:47:51;-3274.80;99.20
48208;DHT22;33997;53.278;9.708;2024-03-08T05:50:17;-3274.80;99.30
48208;DHT22;33997;53.278;9.708;2024-03-08T05:52:43;-3274.80;99.30
48208;DHT22;33997;53.278;9.708;2024-03-08T05:55:08;-3274.90;99.30
48208;DHT22;33997;53.278;9.708;2024-03-08T05:57:35;-3274.90;99.30
48208;DHT22;33997;53.278;9.708;2024-03-08T06:00:03;-3274.90;99.40
48208;DHT22;33997;53.278;9.708;2024-03-08T06:02:29;-3274.90;99.30
48208;DHT22;33997;53.278;9.708;2024-03-08T06:04:54;-3275.00;99.40
48208;DHT22;33997;53.278;9.708;2024-03-08T06:07:20;-3275.00;99.40
48208;DHT22;33997;53.278;9.708;2024-03-08T06:09:45;-3274.90;99.40
48208;DHT22;33997;53.278;9.708;2024-03-08T06:12:13;-3274.90;99.40
48208;DHT22;33997;53.278;9.708;2024-03-08T06:14:46;-3275.00;99.40
48208;DHT22;33997;53.278;9.708;2024-03-08T06:17:12;-3275.00;99.40
48208;DHT22;33997;53.278;9.708;2024-03-08T06:19:37;-3275.00;99.40
48208;DHT22;33997;53.278;9.708;2024-03-08T06:22:03;-3275.00;99.40
48208;DHT22;33997;53.278;9.708;2024-03-08T06:24:31;-3275.00;99.40
48208;DHT22;33997;53.278;9.708;2024-03-08T06:26:57;-3275.00;99.40
48208;DHT22;33997;53.278;9.708;2024-03-08T06:29:22;-3275.00;99.40
48208;DHT22;33997;53.278;9.708;2024-03-08T06:31:49;-3275.10;99.40
48208;DHT22;33997;53.278;9.708;2024-03-08T06:34:15;-3275.10;99.40
48208;DHT22;33997;53.278;9.708;2024-03-08T06:36:40;-3275.20;99.40
48208;DHT22;33997;53.278;9.708;2024-03-08T06:39:06;-3275.30;99.40
48208;DHT22;33997;53.278;9.708;2024-03-08T06:41:36;-3275.30;99.30
48208;DHT22;33997;53.278;9.708;2024-03-08T06:44:01;-3275.30;99.30
48208;DHT22;33997;53.278;9.708;2024-03-08T06:46:27;-3275.30;99.30
48208;DHT22;33997;53.278;9.708;2024-03-08T06:48:52;-3275.30;99.20
48208;DHT22;33997;53.278;9.708;2024-03-08T06:51:18;-3275.40;99.30
48208;DHT22;33997;53.278;9.708;2024-03-08T06:53:44;-3275.50;99.20
48208;DHT22;33997;53.278;9.708;2024-03-08T06:56:09;-3275.50;99.20
48208;DHT22;33997;53.278;9.708;2024-03-08T06:58:35;-3275.50;99.20
48208;DHT22;33997;53.278;9.708;2024-03-08T07:01:00;-3275.60;99.10
48208;DHT22;33997;53.278;9.708;2024-03-08T07:03:29;-3275.70;99.10
48208;DHT22;33997;53.278;9.708;2024-03-08T07:05:56;-3275.80;99.10
48208;DHT22;33997;53.278;9.708;2024-03-08T07:08:23;-3275.80;99.10
48208;DHT22;33997;53.278;9.708;2024-03-08T07:10:49;-3275.90;99.00
48208;DHT22;33997;53.278;9.708;2024-03-08T07:13:15;-3276.00;98.90
48208;DHT22;33997;53.278;9.708;2024-03-08T07:15:40;-3276.10;98.80
48208;DHT22;33997;53.278;9.708;2024-03-08T07:18:06;-3276.20;98.90
48208;DHT22;33997;53.278;9.708;2024-03-08T07:20:34;-3276.30;98.70
48208;DHT22;33997;53.278;9.708;2024-03-08T07:23:00;-3276.30;98.60
48208;DHT22;33997;53.278;9.708;2024-03-08T07:25:26;-3276.40;98.40
48208;DHT22;33997;53.278;9.708;2024-03-08T07:27:55;-3276.50;98.30
48208;DHT22;33997;53.278;9.708;2024-03-08T07:30:22;-3276.60;98.20
48208;DHT22;33997;53.278;9.708;2024-03-08T07:33:06;-3276.60;98.00
48208;DHT22;33997;53.278;9.708;2024-03-08T07:35:35;-3276.70;97.80
48208;DHT22;33997;53.278;9.708;2024-03-08T07:38:07;0.00;97.70
48208;DHT22;33997;53.278;9.708;2024-03-08T07:40:41;0.10;97.70
48208;DHT22;33997;53.278;9.708;2024-03-08T07:43:10;0.10;97.10
48208;DHT22;33997;53.278;9.708;2024-03-08T07:45:37;0.20;96.80
48208;DHT22;33997;53.278;9.708;2024-03-08T07:48:03;0.30;96.60
48208;DHT22;33997;53.278;9.708;2024-03-08T07:50:28;0.40;96.30
48208;DHT22;33997;53.278;9.708;2024-03-08T07:52:54;0.40;95.70
48208;DHT22;33997;53.278;9.708;2024-03-08T07:55:20;0.60;94.90
48208;DHT22;33997;53.278;9.708;2024-03-08T07:57:47;0.70;94.70
48208;DHT22;33997;53.278;9.708;2024-03-08T08:00:13;0.80;94.50
48208;DHT22;33997;53.278;9.708;2024-03-08T08:02:43;0.90;93.70
48208;DHT22;33997;53.278;9.708;2024-03-08T08:05:11;1.10;93.40
48208;DHT22;33997;53.278;9.708;2024-03-08T08:07:36;1.10;92.80
48208;DHT22;33997;53.278;9.708;2024-03-08T08:10:02;1.30;92.90
48208;DHT22;33997;53.278;9.708;2024-03-08T08:12:27;1.40;92.20
48208;DHT22;33997;53.278;9.708;2024-03-08T08:14:54;1.60;93.10
48208;DHT22;33997;53.278;9.708;2024-03-08T08:17:19;1.60;91.20
48208;DHT22;33997;53.278;9.708;2024-03-08T08:19:45;1.70;91.10
48208;DHT22;33997;53.278;9.708;2024-03-08T08:22:11;1.80;90.80
48208;DHT22;33997;53.278;9.708;2024-03-08T08:24:36;2.00;90.10
48208;DHT22;33997;53.278;9.708;2024-03-08T08:27:03;2.10;89.70
48208;DHT22;33997;53.278;9.708;2024-03-08T08:29:28;2.20;89.30
48208;DHT22;33997;53.278;9.708;2024-03-08T08:31:57;2.70;90.50
48208;DHT22;33997;53.278;9.708;2024-03-08T08:34:24;2.60;87.50
48208;DHT22;33997;53.278;9.708;2024-03-08T08:36:51;2.80;88.10
48208;DHT22;33997;53.278;9.708;2024-03-08T08:39:17;2.90;86.60
48208;DHT22;33997;53.278;9.708;2024-03-08T08:41:43;3.30;87.20
48208;DHT22;33997;53.278;9.708;2024-03-08T08:44:08;3.30;86.80
48208;DHT22;33997;53.278;9.708;2024-03-08T08:46:36;3.60;86.30
48208;DHT22;33997;53.278;9.708;2024-03-08T08:49:03;3.70;85.20
48208;DHT22;33997;53.278;9.708;2024-03-08T08:51:28;3.80;83.30
48208;DHT22;33997;53.278;9.708;2024-03-08T08:53:54;4.10;84.70
48208;DHT22;33997;53.278;9.708;2024-03-08T08:56:21;4.20;84.10
48208;DHT22;33997;53.278;9.708;2024-03-08T08:58:47;4.20;81.50
48208;DHT22;33997;53.278;9.708;2024-03-08T09:01:14;4.60;82.40
48208;DHT22;33997;53.278;9.708;2024-03-08T09:03:39;4.60;81.60
48208;DHT22;33997;53.278;9.708;2024-03-08T09:06:11;4.70;79.80
48208;DHT22;33997;53.278;9.708;2024-03-08T09:08:41;4.70;79.40
48208;DHT22;33997;53.278;9.708;2024-03-08T09:11:07;4.80;79.40
48208;DHT22;33997;53.278;9.708;2024-03-08T09:13:32;5.10;79.90
48208;DHT22;33997;53.278;9.708;2024-03-08T09:16:02;5.10;76.30
48208;DHT22;33997;53.278;9.708;2024-03-08T09:18:28;5.30;77.50
48208;DHT22;33997;53.278;9.708;2024-03-08T09:20:54;5.20;76.20
48208;DHT22;33997;53.278;9.708;2024-03-08T09:23:20;5.60;78.00
48208;DHT22;33997;53.278;9.708;2024-03-08T09:25:46;5.40;76.70
48208;DHT22;33997;53.278;9.708;2024-03-08T09:28:12;5.60;75.70
48208;DHT22;33997;53.278;9.708;2024-03-08T09:30:38;5.60;75.20
48208;DHT22;33997;53.278;9.708;2024-03-08T09:33:04;6.00;76.50
48208;DHT22;33997;53.278;9.708;2024-03-08T09:35:31;5.90;76.00
48208;DHT22;33997;53.278;9.708;2024-03-08T09:37:56;6.10;75.30
48208;DHT22;33997;53.278;9.708;2024-03-08T09:40:22;6.30;74.20
48208;DHT22;33997;53.278;9.708;2024-03-08T09:42:49;6.20;71.80
48208;DHT22;33997;53.278;9.708;2024-03-08T09:45:16;6.10;72.90
48208;DHT22;33997;53.278;9.708;2024-03-08T09:47:43;6.50;72.90
48208;DHT22;33997;53.278;9.708;2024-03-08T09:50:10;6.20;70.40
48208;DHT22;33997;53.278;9.708;2024-03-08T09:52:38;6.40;71.90
48208;DHT22;33997;53.278;9.708;2024-03-08T09:55:08;6.20;69.90
48208;DHT22;33997;53.278;9.708;2024-03-08T09:57:36;6.10;70.80
48208;DHT22;33997;53.278;9.708;2024-03-08T10:00:03;6.20;69.20
48208;DHT22;33997;53.278;9.708;2024-03-08T10:02:34;6.00;71.30
48208;DHT22;33997;53.278;9.708;2024-03-08T10:05:01;5.90;70.60
48208;DHT22;33997;53.278;9.708;2024-03-08T10:07:28;6.20;70.50
48208;DHT22;33997;53.278;9.708;2024-03-08T10:09:54;6.40;70.20
48208;DHT22;33997;53.278;9.708;2024-03-08T10:12:19;6.40;69.20
48208;DHT22;33997;53.278;9.708;2024-03-08T10:14:45;6.80;68.90
48208;DHT22;33997;53.278;9.708;2024-03-08T10:17:12;6.60;69.90
48208;DHT22;33997;53.278;9.708;2024-03-08T10:19:37;6.60;70.30
48208;DHT22;33997;53.278;9.708;2024-03-08T10:22:04;6.90;68.50
48208;DHT22;33997;53.278;9.708;2024-03-08T10:24:30;7.20;67.40
48208;DHT22;33997;53.278;9.708;2024-03-08T10:27:00;7.60;68.00
48208;DHT22;33997;53.278;9.708;2024-03-08T10:29:27;6.90;67.60
48208;DHT22;33997;53.278;9.708;2024-03-08T10:31:54;7.60;69.10
48208;DHT22;33997;53.278;9.708;2024-03-08T10:34:21;7.10;65.00
48208;DHT22;33997;53.278;9.708;2024-03-08T10:36:50;6.90;64.90
48208;DHT22;33997;53.278;9.708;2024-03-08T10:39:22;7.00;64.10
48208;DHT22;33997;53.278;9.708;2024-03-08T10:41:58;7.00;63.80
48208;DHT22;33997;53.278;9.708;2024-03-08T10:47:05;7.40;62.70
48208;DHT22;33997;53.278;9.708;2024-03-08T10:49:46;7.20;64.30
48208;DHT22;33997;53.278;9.708;2024-03-08T10:52:15;7.50;63.20
48208;DHT22;33997;53.278;9.708;2024-03-08T10:54:43;7.30;63.00
48208;DHT22;33997;53.278;9.708;2024-03-08T10:57:12;7.60;62.70
48208;DHT22;33997;53.278;9.708;2024-03-08T10:59:39;8.10;63.00
48208;DHT22;33997;53.278;9.708;2024-03-08T11:02:05;7.90;61.30
48208;DHT22;33997;53.278;9.708;2024-03-08T11:04:31;7.60;61.20
48208;DHT22;33997;53.278;9.708;2024-03-08T11:07:02;7.60;61.70
48208;DHT22;33997;53.278;9.708;2024-03-08T11:09:37;7.70;61.50
48208;DHT22;33997;53.278;9.708;2024-03-08T11:12:23;7.80;62.10
48208;DHT22;33997;53.278;9.708;2024-03-08T11:14:55;7.70;61.60
48208;DHT22;33997;53.278;9.708;2024-03-08T11:19:56;7.80;62.30
48208;DHT22;33997;53.278;9.708;2024-03-08T11:22:33;7.60;61.30
48208;DHT22;33997;53.278;9.708;2024-03-08T11:25:01;8.00;61.90
48208;DHT22;33997;53.278;9.708;2024-03-08T11:27:31;8.20;61.60
48208;DHT22;33997;53.278;9.708;2024-03-08T11:30:06;8.40;60.80
48208;DHT22;33997;53.278;9.708;2024-03-08T11:32:48;8.30;60.10
48208;DHT22;33997;53.278;9.708;2024-03-08T11:35:21;8.30;61.80
48208;DHT22;33997;53.278;9.708;2024-03-08T11:37:48;8.10;60.90
48208;DHT22;33997;53.278;9.708;2024-03-08T11:40:14;8.10;60.30
48208;DHT22;33997;53.278;9.708;2024-03-08T11:42:45;8.30;59.00
48208;DHT22;33997;53.278;9.708;2024-03-08T11:45:13;8.60;59.00
48208;DHT22;33997;53.278;9.708;2024-03-08T11:47:41;8.70;57.60
48208;DHT22;33997;53.278;9.708;2024-03-08T11:50:07;8.70;57.20
48208;DHT22;33997;53.278;9.708;2024-03-08T11:52:36;8.50;58.30
48208;DHT22;33997;53.278;9.708;2024-03-08T11:55:04;8.70;57.70
48208;DHT22;33997;53.278;9.708;2024-03-08T11:57:31;8.80;57.10
48208;DHT22;33997;53.278;9.708;2024-03-08T11:59:57;8.80;57.10
48208;DHT22;33997;53.278;9.708;2024-03-08T12:02:24;9.50;56.10
48208;DHT22;33997;53.278;9.708;2024-03-08T12:05:00;9.00;57.00
48208;DHT22;33997;53.278;9.708;2024-03-08T12:07:26;9.10;56.30
48208;DHT22;33997;53.278;9.708;2024-03-08T12:10:15;9.50;55.90
48208;DHT22;33997;53.278;9.708;2024-03-08T12:12:45;9.60;56.40
48208;DHT22;33997;53.278;9.708;2024-03-08T12:15:12;9.60;54.90
48208;DHT22;33997;53.278;9.708;2024-03-08T12:17:38;9.60;55.00
48208;DHT22;33997;53.278;9.708;2024-03-08T12:20:18;9.50;54.20
48208;DHT22;33997;53.278;9.708;2024-03-08T12:22:44;9.70;55.40
48208;DHT22;33997;53.278;9.708;2024-03-08T12:25:11;10.00;54.90
48208;DHT22;33997;53.278;9.708;2024-03-08T12:27:38;9.40;54.40
48208;DHT22;33997;53.278;9.708;2024-03-08T12:30:21;10.30;55.20
48208;DHT22;33997;53.278;9.708;2024-03-08T12:32:55;9.40;54.50
48208;DHT22;33997;53.278;9.708;2024-03-08T12:35:25;10.10;53.40
48208;DHT22;33997;53.278;9.708;2024-03-08T12:37:56;10.00;53.30
48208;DHT22;33997;53.278;9.708;2024-03-08T12:40:32;10.40;53.30
48208;DHT22;33997;53.278;9.708;2024-03-08T12:43:00;10.50;52.50
48208;DHT22;33997;53.278;9.708;2024-03-08T12:45:26;10.90;52.20
48208;DHT22;33997;53.278;9.708;2024-03-08T12:47:52;9.90;51.40
48208;DHT22;33997;53.278;9.708;2024-03-08T12:50:19;10.10;52.50
48208;DHT22;33997;53.278;9.708;2024-03-08T12:52:44;9.70;53.50
48208;DHT22;33997;53.278;9.708;2024-03-08T12:55:10;10.00;51.80
48208;DHT22;33997;53.278;9.708;2024-03-08T12:57:36;10.50;51.60
48208;DHT22;33997;53.278;9.708;2024-03-08T13:00:03;10.70;51.20
48208;DHT22;33997;53.278;9.708;2024-03-08T13:02:30;10.50;50.90
48208;DHT22;33997;53.278;9.708;2024-03-08T13:04:57;10.70;51.20
48208;DHT22;33997;53.278;9.708;2024-03-08T13:07:24;11.30;51.20
48208;DHT22;33997;53.278;9.708;2024-03-08T13:09:55;11.40;49.40
48208;DHT22;33997;53.278;9.708;2024-03-08T13:12:21;11.60;49.90
48208;DHT22;33997;53.278;9.708;2024-03-08T13:14:47;11.50;49.10
48208;DHT22;33997;53.278;9.708;2024-03-08T13:17:14;10.90;49.70
48208;DHT22;33997;53.278;9.708;2024-03-08T13:19:39;10.50;49.60
48208;DHT22;33997;53.278;9.708;2024-03-08T13:22:05;11.10;49.10
48208;DHT22;33997;53.278;9.708;2024-03-08T13:24:31;10.80;50.70
48208;DHT22;33997;53.278;9.708;2024-03-08T13:26:57;10.60;49.70
48208;DHT22;33997;53.278;9.708;2024-03-08T13:29:23;11.00;49.60
48208;DHT22;33997;53.278;9.708;2024-03-08T13:31:49;11.00;50.20
48208;DHT22;33997;53.278;9.708;2024-03-08T13:34:17;11.60;49.00
48208;DHT22;33997;53.278;9.708;2024-03-08T13:36:43;11.70;48.70
48208;DHT22;33997;53.278;9.708;2024-03-08T13:39:09;12.00;47.00
48208;DHT22;33997;53.278;9.708;2024-03-08T13:41:41;11.60;48.50
48208;DHT22;33997;53.278;9.708;2024-03-08T13:44:07;11.60;47.30
48208;DHT22;33997;53.278;9.708;2024-03-08T13:46:33;11.40;47.40
48208;DHT22;33997;53.278;9.708;2024-03-08T13:49:05;11.30;48.20
48208;DHT22;33997;53.278;9.708;2024-03-08T13:51:31;11.50;46.40
48208;DHT22;33997;53.278;9.708;2024-03-08T13:53:57;11.60;45.90
48208;DHT22;33997;53.278;9.708;2024-03-08T13:56:23;11.80;46.40
48208;DHT22;33997;53.278;9.708;2024-03-08T13:58:48;12.00;45.90
48208;DHT22;33997;53.278;9.708;2024-03-08T14:01:14;12.20;45.90
48208;DHT22;33997;53.278;9.708;2024-03-08T14:03:39;12.10;45.80
48208;DHT22;33997;53.278;9.708;2024-03-08T14:06:09;11.70;46.00
48208;DHT22;33997;53.278;9.708;2024-03-08T14:08:35;12.40;45.60
48208;DHT22;33997;53.278;9.708;2024-03-08T14:11:04;12.60;44.80
48208;DHT22;33997;53.278;9.708;2024-03-08T14:13:42;12.20;44.30
48208;DHT22;33997;53.278;9.708;2024-03-08T14:16:10;12.50;44.30
48208;DHT22;33997;53.278;9.708;2024-03-08T14:18:36;12.10;43.90
48208;DHT22;33997;53.278;9.708;2024-03-08T14:21:02;12.20;44.00
48208;DHT22;33997;53.278;9.708;2024-03-08T14:23:29;12.60;43.80
48208;DHT22;33997;53.278;9.708;2024-03-08T14:25:55;12.40;43.70
48208;DHT22;33997;53.278;9.708;2024-03-08T14:28:20;12.60;44.10
48208;DHT22;33997;53.278;9.708;2024-03-08T14:30:48;12.10;43.70
48208;DHT22;33997;53.278;9.708;2024-03-08T14:33:14;12.30;43.00
48208;DHT22;33997;53.278;9.708;2024-03-08T14:35:40;12.00;44.10
48208;DHT22;33997;53.278;9.708;2024-03-08T14:38:06;12.30;44.50
48208;DHT22;33997;53.278;9.708;2024-03-08T14:40:34;13.00;43.80
48208;DHT22;33997;53.278;9.708;2024-03-08T14:42:59;13.10;43.30
48208;DHT22;33997;53.278;9.708;2024-03-08T14:45:26;13.60;42.30
48208;DHT22;33997;53.278;9.708;2024-03-08T14:47:52;13.10;44.10
48208;DHT22;33997;53.278;9.708;2024-03-08T14:50:21;13.10;45.00
48208;DHT22;33997;53.278;9.708;2024-03-08T14:52:48;13.20;44.30
48208;DHT22;33997;53.278;9.708;2024-03-08T14:55:15;13.20;44.70
48208;DHT22;33997;53.278;9.708;2024-03-08T14:57:41;13.20;43.60
48208;DHT22;33997;53.278;9.708;2024-03-08T15:00:08;13.50;44.30
48208;DHT22;33997;53.278;9.708;2024-03-08T15:02:41;12.90;45.10
48208;DHT22;33997;53.278;9.708;2024-03-08T15:05:07;12.50;45.50
48208;DHT22;33997;53.278;9.708;2024-03-08T15:07:39;12.10;44.70
48208;DHT22;33997;53.278;9.708;2024-03-08T15:10:08;12.40;45.70
48208;DHT22;33997;53.278;9.708;2024-03-08T15:12:39;12.40;44.40
48208;DHT22;33997;53.278;9.708;2024-03-08T15:15:08;12.90;44.70
48208;DHT22;33997;53.278;9.708;2024-03-08T15:17:35;12.00;45.70
48208;DHT22;33997;53.278;9.708;2024-03-08T15:20:02;12.00;45.60